Time;durP1;ratioP1;P1;durP2;ratioP2;P2;SDS_P1;SDS_P2;PMS_P1;PMS_P2;Temp;Humidity;BMP_temperature;BMP_pressure;BME280_temperature;BME280_humidity;BME280_pressure;Samples;Min_cycle;Max_cycle;Signal;HPM_P1;HPM_P2
2021/12/04 00:00:52;;;;;;;15.15;8.95;;;;;;;1.80;69.64;98342.75;5023971;28;20110;-66
2021/12/04 00:03:18;;;;;;;14.27;7.28;;;;;;;1.77;70.00;98314.78;5023488;28;20125;-66
2021/12/04 00:05:49;;;;;;;13.07;5.93;;;;;;;1.85;69.59;98321.97;5012819;28;20037;-66
2021/12/04 00:08:14;;;;;;;9.55;6.10;;;;;;;1.97;70.28;98326.31;5018754;28;20112;-66
2021/12/04 00:10:40;;;;;;;12.13;6.97;;;;;;;2.01;69.82;98319.22;5018252;28;20079;-66
2021/12/04 00:13:06;;;;;;;11.45;6.65;;;;;;;1.71;69.49;98245.94;5022284;28;20139;-66
2021/12/04 00:15:31;;;;;;;12.23;6.75;;;;;;;2.00;69.64;98304.78;5014584;28;20029;-65
2021/12/04 00:17:58;;;;;;;14.48;7.30;;;;;;;1.92;70.19;98303.53;5023075;28;20021;-66
2021/12/04 00:20:30;;;;;;;12.98;7.53;;;;;;;1.95;69.81;98306.81;5002617;28;20836;-66
2021/12/04 00:22:59;;;;;;;16.90;8.13;;;;;;;2.04;70.04;98319.03;5005731;28;20052;-66
2021/12/04 00:25:26;;;;;;;12.50;8.10;;;;;;;1.94;70.04;98303.44;5004178;28;20043;-67
2021/12/04 00:27:52;;;;;;;13.30;7.68;;;;;;;1.97;69.92;98302.41;5018351;28;20036;-66
2021/12/04 00:30:17;;;;;;;17.38;8.65;;;;;;;1.96;70.09;98303.34;5019470;28;20122;-66
2021/12/04 00:32:53;;;;;;;15.88;8.70;;;;;;;1.89;70.17;98290.91;5021359;28;20813;-66
2021/12/04 00:35:34;;;;;;;14.00;8.23;;;;;;;1.89;70.09;98292.66;5020644;28;20029;-66
2021/12/04 00:51:27;;;;;;;14.98;8.52;;;;;;;1.56;71.65;98311.78;5021672;28;20060;-66
2021/12/04 00:53:54;;;;;;;19.13;8.80;;;;;;;1.29;72.24;98309.19;5018201;28;20562;-66
2021/12/04 00:56:21;;;;;;;16.95;8.90;;;;;;;1.43;71.56;98305.78;5004662;28;20455;-66
2021/12/04 00:58:46;;;;;;;14.48;8.25;;;;;;;1.42;71.96;98307.50;5017383;28;20037;-66
2021/12/04 01:01:15;;;;;;;12.25;7.47;;;;;;;1.07;71.57;98302.81;5018345;28;20055;-66
2021/12/04 01:03:40;;;;;;;14.75;7.60;;;;;;;0.54;72.44;98238.53;5018595;28;20040;-65
2021/12/04 01:06:06;;;;;;;14.00;7.75;;;;;;;1.14;72.47;98290.47;5013003;28;20026;-66
2021/12/04 01:08:32;;;;;;;12.23;7.40;;;;;;;1.28;72.51;98300.69;5018140;28;20069;-66
2021/12/04 01:10:58;;;;;;;14.43;7.20;;;;;;;1.28;71.91;98287.88;5016476;28;20029;-66
2021/12/04 01:13:23;;;;;;;12.98;6.85;;;;;;;1.07;72.31;98240.53;5017891;28;20525;-66
2021/12/04 01:15:49;;;;;;;12.63;6.47;;;;;;;1.43;73.17;98292.97;5017904;28;20065;-66
2021/12/04 01:18:14;;;;;;;13.55;7.10;;;;;;;1.45;72.10;98293.69;5017067;28;20038;-65
2021/12/04 01:20:40;;;;;;;12.55;6.63;;;;;;;1.40;70.90;98288.03;5002805;28;20109;-66
2021/12/04 01:23:06;;;;;;;17.13;7.40;;;;;;;1.29;71.81;98263.88;5016797;28;20028;-65
2021/12/04 01:25:32;;;;;;;14.13;7.18;;;;;;;1.39;71.70;98294.91;5018719;28;20037;-66
2021/12/04 01:27:57;;;;;;;12.57;6.97;;;;;;;1.23;71.42;98302.69;4997765;28;20091;-66
2021/12/04 01:30:22;;;;;;;12.82;6.72;;;;;;;1.16;72.97;98301.44;5020175;28;20071;-66
2021/12/04 01:32:48;;;;;;;13.73;6.50;;;;;;;1.20;72.64;98287.50;5017807;28;20431;-66
2021/12/04 01:35:14;;;;;;;10.45;6.25;;;;;;;1.26;73.28;98296.56;5016882;28;20443;-66
2021/12/04 01:37:40;;;;;;;10.80;5.93;;;;;;;1.30;72.95;98303.16;5020453;28;20037;-66
2021/12/04 01:40:07;;;;;;;12.50;6.00;;;;;;;1.44;73.17;98297.16;5016664;28;20092;-65
2021/12/04 01:42:35;;;;;;;9.55;5.80;;;;;;;1.41;73.41;98292.25;5017666;28;20052;-66
2021/12/04 01:45:03;;;;;;;8.75;5.05;;;;;;;1.45;72.66;98294.50;5016411;28;20567;-66
2021/12/04 01:47:29;;;;;;;10.05;5.05;;;;;;;1.49;72.81;98290.03;5052798;28;20049;-65
2021/12/04 01:49:55;;;;;;;12.27;5.50;;;;;;;1.55;72.70;98294.75;5003386;28;20102;-66
2021/12/04 01:52:21;;;;;;;10.63;4.90;;;;;;;1.52;72.09;98280.41;4999554;28;20030;-66
2021/12/04 01:54:49;;;;;;;10.38;4.95;;;;;;;1.23;72.86;98220.75;5019459;28;20357;-66
2021/12/04 01:57:15;;;;;;;10.57;5.00;;;;;;;1.58;72.99;98270.69;5016323;28;20523;-65
2021/12/04 01:59:41;;;;;;;11.90;4.43;;;;;;;1.52;73.24;98262.47;5003184;28;20061;-66
2021/12/04 02:02:07;;;;;;;6.85;3.25;;;;;;;1.67;71.42;98265.00;5002764;28;20048;-66
2021/12/04 02:04:32;;;;;;;9.43;4.53;;;;;;;1.60;72.24;98248.34;5022423;28;20029;-66
2021/12/04 02:07:02;;;;;;;7.50;4.03;;;;;;;1.27;72.29;98204.25;5021688;28;20030;-66
2021/12/04 02:09:28;;;;;;;11.00;4.47;;;;;;;1.72;72.45;98258.66;5017259;28;20030;-66
2021/12/04 02:11:54;;;;;;;8.75;3.95;;;;;;;1.46;72.09;98223.59;5018399;28;20022;-65
2021/12/04 02:14:19;;;;;;;7.20;3.50;;;;;;;1.69;71.90;98260.59;5021710;28;20072;-66
2021/12/04 02:16:45;;;;;;;6.93;3.50;;;;;;;1.75;71.71;98262.75;5022903;28;20028;-66
2021/12/04 02:19:10;;;;;;;6.40;3.30;;;;;;;1.84;72.10;98249.34;5016356;28;20111;-65
2021/12/04 02:21:36;;;;;;;7.30;3.75;;;;;;;1.89;71.63;98256.75;5021437;28;20029;-65
2021/12/04 02:24:01;;;;;;;8.35;3.47;;;;;;;1.80;70.68;98249.66;5014905;28;20501;-66
2021/12/04 02:26:27;;;;;;;8.15;3.75;;;;;;;1.80;71.67;98241.97;5022596;28;20119;-66
2021/12/04 02:28:54;;;;;;;8.02;4.10;;;;;;;1.73;71.30;98255.19;5014563;28;20041;-66
2021/12/04 02:31:20;;;;;;;7.55;4.43;;;;;;;1.42;70.99;98246.00;5020873;28;20025;-66
2021/12/04 02:33:46;;;;;;;9.63;4.53;;;;;;;1.46;72.09;98244.09;5022213;28;20091;-66
2021/12/04 02:36:11;;;;;;;8.95;4.53;;;;;;;1.20;71.93;98185.06;5021315;28;20049;-66
2021/12/04 02:38:37;;;;;;;9.05;4.90;;;;;;;1.51;71.79;98240.31;5022474;28;20396;-65
2021/12/04 02:41:03;;;;;;;8.45;4.22;;;;;;;1.22;72.07;98231.88;5022108;28;20033;-65
2021/12/04 02:43:33;;;;;;;9.10;4.47;;;;;;;1.32;71.89;98232.97;5018179;28;20041;-66
2021/12/04 02:45:59;;;;;;;8.82;5.00;;;;;;;1.28;71.29;98231.53;5004410;28;20026;-65
2021/12/04 02:48:24;;;;;;;7.03;3.92;;;;;;;1.35;72.05;98224.25;5004426;28;20060;-66
2021/12/04 02:50:50;;;;;;;8.48;4.43;;;;;;;1.42;72.49;98222.16;4970396;28;20040;-66
2021/12/04 02:53:17;;;;;;;7.78;4.40;;;;;;;1.08;71.90;98165.38;5022210;28;20036;-65
2021/12/04 02:55:44;;;;;;;8.05;4.45;;;;;;;1.32;71.84;98207.34;5020155;28;20021;-66
2021/12/04 02:58:12;;;;;;;9.93;4.25;;;;;;;1.14;72.82;98173.47;5021891;28;20082;-66
2021/12/04 03:00:45;;;;;;;7.38;4.47;;;;;;;1.53;71.91;98218.00;5021358;28;20057;-66
2021/12/04 03:03:11;;;;;;;8.77;4.53;;;;;;;1.19;71.55;98154.41;5019335;28;20810;-66
2021/12/04 03:05:36;;;;;;;8.60;4.32;;;;;;;1.49;72.17;98206.28;5021302;28;20033;-65
2021/12/04 03:08:03;;;;;;;8.48;4.75;;;;;;;1.18;72.60;98143.38;5018627;28;21763;-66
2021/12/04 03:10:28;;;;;;;9.45;4.55;;;;;;;1.18;71.79;98142.56;5020833;28;20860;-66
2021/12/04 03:12:54;;;;;;;8.35;4.25;;;;;;;1.52;72.70;98203.53;5002343;28;20029;-66
2021/12/04 03:15:21;;;;;;;8.18;4.35;;;;;;;1.53;72.40;98187.25;5020064;28;20514;-66
2021/12/04 03:17:46;;;;;;;9.48;4.28;;;;;;;1.18;72.42;98122.88;5020142;28;20488;-66
2021/12/04 03:20:12;;;;;;;9.55;4.10;;;;;;;1.53;72.93;98179.56;5023254;28;20171;-66
2021/12/04 03:22:40;;;;;;;7.70;4.13;;;;;;;1.46;72.72;98178.31;5022544;28;20395;-66
2021/12/04 03:25:06;;;;;;;10.07;4.57;;;;;;;1.35;72.84;98165.34;5023302;28;20033;-65
2021/12/04 03:27:33;;;;;;;8.00;4.10;;;;;;;1.46;73.57;98180.88;5031538;28;20033;-66
2021/12/04 03:30:03;;;;;;;7.45;4.18;;;;;;;1.60;72.84;98179.16;5052724;28;20026;-66
2021/12/04 03:43:07;;;;;;;9.40;4.35;;;;;;;1.52;72.12;98146.34;5020947;28;20435;-66
2021/12/04 03:45:34;;;;;;;8.50;4.28;;;;;;;1.53;72.39;98125.75;5003149;28;20058;-64
2021/12/04 03:48:08;;;;;;;7.75;4.03;;;;;;;1.59;71.96;98133.94;5017120;28;20028;-65
2021/12/04 03:50:34;;;;;;;7.45;3.63;;;;;;;1.59;71.50;98132.22;5049451;28;20029;-66
2021/12/04 03:53:00;;;;;;;9.88;3.65;;;;;;;1.68;71.32;98128.22;5013337;28;20037;-65
2021/12/04 03:55:25;;;;;;;7.78;3.80;;;;;;;1.39;70.16;98079.69;5018447;28;20037;-66
2021/12/04 03:57:51;;;;;;;5.15;2.42;;;;;;;1.79;66.52;98119.81;4997134;28;20387;-65
2021/12/04 04:00:18;;;;;;;5.55;2.33;;;;;;;1.60;63.99;98061.28;5021780;28;20095;-65
2021/12/04 04:02:45;;;;;;;5.95;2.53;;;;;;;2.01;62.85;98114.06;5017189;28;20033;-65
2021/12/04 04:05:10;;;;;;;6.47;2.63;;;;;;;2.21;62.11;98121.28;5019707;28;20033;-66
2021/12/04 04:07:36;;;;;;;6.13;2.70;;;;;;;2.26;64.22;98123.50;5019527;28;20025;-66
2021/12/04 04:10:06;;;;;;;6.13;2.40;;;;;;;2.26;62.64;98111.53;5005145;28;20120;-66
2021/12/04 04:12:31;;;;;;;5.68;2.55;;;;;;;2.27;62.10;98107.19;5001872;28;20037;-66
2021/12/04 04:14:57;;;;;;;5.03;2.30;;;;;;;2.21;62.10;98087.06;5017039;28;20033;-66
2021/12/04 04:17:23;;;;;;;5.82;2.35;;;;;;;2.31;61.63;98108.63;5021220;28;20044;-65
2021/12/04 04:19:48;;;;;;;7.85;2.70;;;;;;;2.28;63.85;98098.56;5016707;28;20519;-66
2021/12/04 04:22:14;;;;;;;5.57;2.45;;;;;;;2.37;65.08;98108.19;5019396;28;20034;-66
2021/12/04 04:24:39;;;;;;;5.95;2.90;;;;;;;2.31;65.23;98104.31;5016625;28;20025;-65
2021/12/04 04:27:05;;;;;;;5.13;2.90;;;;;;;2.36;65.53;98109.13;5021829;28;20598;-66
2021/12/04 04:29:31;;;;;;;6.20;2.40;;;;;;;2.25;65.75;98111.63;5004813;28;20701;-66
2021/12/04 04:31:56;;;;;;;6.05;2.80;;;;;;;1.83;66.78;98047.75;5019193;28;20376;-66
2021/12/04 04:34:29;;;;;;;6.95;2.92;;;;;;;2.18;67.33;98106.06;5020749;28;20021;-66
2021/12/04 05:12:19;;;;;;;6.78;3.05;;;;;;;0.87;69.53;98035.22;5014543;28;20052;-66
2021/12/04 05:14:49;;;;;;;7.50;3.58;;;;;;;1.22;69.56;98087.66;5015415;28;20025;-65
2021/12/04 05:17:27;;;;;;;8.70;3.53;;;;;;;1.22;69.44;98093.59;5020210;28;20654;-65
2021/12/04 05:19:54;;;;;;;8.00;3.42;;;;;;;1.13;70.35;98083.94;5017486;28;20014;-65
2021/12/04 05:22:20;;;;;;;7.25;3.65;;;;;;;1.11;70.04;98081.50;5020325;28;20044;-65
2021/12/04 05:24:46;;;;;;;8.48;4.28;;;;;;;0.88;70.22;98085.50;5013192;28;20480;-66
2021/12/04 05:27:12;;;;;;;9.77;4.60;;;;;;;0.88;70.39;98074.44;5020669;28;20056;-65
2021/12/04 05:29:37;;;;;;;9.75;4.53;;;;;;;0.99;69.94;98100.19;5014530;28;20515;-65
2021/12/04 05:32:05;;;;;;;7.97;4.25;;;;;;;0.84;69.88;98080.66;5018425;28;20128;-65
2021/12/04 05:34:30;;;;;;;7.20;4.20;;;;;;;0.82;70.14;98093.56;5018856;28;20511;-65
2021/12/04 05:36:57;;;;;;;8.52;4.35;;;;;;;0.78;71.00;98081.88;5016549;28;20030;-65
2021/12/04 05:39:22;;;;;;;9.07;4.50;;;;;;;0.90;70.65;98080.28;5052106;28;20106;-66
2021/12/04 05:41:48;;;;;;;7.85;4.45;;;;;;;0.51;70.54;98031.53;5014645;28;20021;-65
2021/12/04 05:44:15;;;;;;;7.40;4.32;;;;;;;0.80;70.30;98089.44;5050164;28;20037;-66
2021/12/04 05:46:53;;;;;;;8.80;4.47;;;;;;;0.73;70.65;98050.63;5015741;28;20054;-66
2021/12/04 05:49:23;;;;;;;7.65;4.18;;;;;;;0.86;70.83;98084.78;5017142;28;20120;-64
2021/12/04 05:56:46;;;;;;;9.15;3.95;;;;;;;0.83;71.30;98072.16;5017546;28;20030;-66
2021/12/04 05:59:12;;;;;;;8.35;4.68;;;;;;;0.49;71.67;98007.78;5019292;28;20040;-66
2021/12/04 06:01:38;;;;;;;8.93;4.07;;;;;;;0.76;71.60;98064.03;5000838;28;20122;-65
2021/12/04 06:04:03;;;;;;;8.38;4.30;;;;;;;0.56;71.69;98083.19;5050128;28;20030;-66
2021/12/04 06:06:29;;;;;;;9.18;4.47;;;;;;;0.67;71.52;98084.28;5019199;28;20409;-65
2021/12/04 06:08:55;;;;;;;8.25;4.40;;;;;;;0.69;72.13;98079.88;5011327;28;20380;-66
2021/12/04 06:11:20;;;;;;;7.78;4.00;;;;;;;0.71;72.34;98070.38;5013158;28;20686;-65
2021/12/04 06:13:46;;;;;;;9.63;4.20;;;;;;;0.34;72.09;98011.28;5017026;28;20030;-65
2021/12/04 06:16:13;;;;;;;9.32;4.88;;;;;;;0.41;72.31;98021.94;5016637;28;20068;-65
2021/12/04 06:18:38;;;;;;;10.07;4.40;;;;;;;0.67;71.59;98061.25;5017127;28;20026;-65
2021/12/04 06:23:48;;;;;;;9.55;4.20;;;;;;;0.63;72.74;98062.38;5017357;28;20724;-66
2021/12/04 06:26:13;;;;;;;10.10;4.88;;;;;;;0.40;72.65;98022.84;5015104;28;20025;-64
2021/12/04 06:28:39;;;;;;;7.35;4.35;;;;;;;0.56;72.50;98059.34;5014793;28;20849;-66
2021/12/04 06:31:07;;;;;;;8.63;4.15;;;;;;;0.52;72.20;98055.34;5001646;28;20037;-66
2021/12/04 06:33:33;;;;;;;8.20;3.97;;;;;;;0.41;73.23;98058.56;5016716;28;20149;-66
2021/12/04 06:36:00;;;;;;;8.48;4.15;;;;;;;0.14;72.75;97994.59;5016914;28;20044;-65
2021/12/04 06:38:25;;;;;;;7.30;4.00;;;;;;;0.53;73.33;98049.31;5017197;28;20239;-65
2021/12/04 06:40:51;;;;;;;8.05;4.07;;;;;;;0.61;72.07;98048.84;5012218;28;20112;-65
2021/12/04 06:43:17;;;;;;;7.80;4.07;;;;;;;0.31;72.27;97996.09;5023911;28;20032;-65
2021/12/04 06:45:44;;;;;;;8.27;4.28;;;;;;;0.30;72.22;98040.50;5016632;28;20017;-66
2021/12/04 06:48:20;;;;;;;11.65;4.88;;;;;;;0.28;73.18;98044.91;5023650;28;20100;-66
2021/12/04 06:55:58;;;;;;;9.93;4.80;;;;;;;0.43;72.13;98041.38;5024129;28;20056;-66
2021/12/04 06:58:25;;;;;;;9.45;4.80;;;;;;;0.44;72.65;98025.13;5005883;28;20414;-65
2021/12/04 07:00:51;;;;;;;10.43;4.70;;;;;;;0.44;72.62;98044.75;5020313;28;20029;-65
2021/12/04 07:03:18;;;;;;;8.43;4.28;;;;;;;0.33;72.21;98036.03;5020796;28;20037;-65
2021/12/04 07:05:43;;;;;;;9.70;4.13;;;;;;;0.42;71.96;98032.09;5015965;28;20030;-65
2021/12/04 07:08:09;;;;;;;9.10;4.40;;;;;;;0.30;71.73;98025.16;5020130;28;20040;-65
2021/12/04 07:10:36;;;;;;;8.85;4.22;;;;;;;0.01;72.12;97981.75;5021880;28;20072;-65
2021/12/04 07:13:03;;;;;;;9.02;4.45;;;;;;;0.29;72.47;98029.47;5001701;28;20037;-65
2021/12/04 07:15:31;;;;;;;7.45;4.13;;;;;;;0.40;71.71;98030.53;5000284;28;20040;-66
2021/12/04 07:17:58;;;;;;;9.70;4.57;;;;;;;0.43;72.05;98028.59;5025399;28;20539;-65
2021/12/04 07:20:23;;;;;;;8.82;4.45;;;;;;;0.38;71.66;98038.28;5020554;28;20025;-65
2021/12/04 07:22:49;;;;;;;9.90;4.60;;;;;;;0.24;72.31;98013.59;5006706;28;20037;-66
2021/12/04 07:25:15;;;;;;;10.82;4.47;;;;;;;0.45;72.51;98038.75;5019530;28;20033;-66
2021/12/04 07:27:40;;;;;;;8.32;4.25;;;;;;;0.39;72.41;98045.06;5020660;28;20585;-65
2021/12/04 07:30:06;;;;;;;11.90;4.65;;;;;;;0.13;73.89;98034.69;5023680;28;20164;-65
2021/12/04 07:32:32;;;;;;;11.75;5.45;;;;;;;0.01;72.92;97991.16;5018610;28;20321;-65
2021/12/04 07:34:58;;;;;;;8.93;4.63;;;;;;;0.31;72.59;98006.34;5018961;28;20033;-66
2021/12/04 07:37:24;;;;;;;11.93;5.95;;;;;;;0.13;72.56;97983.56;5020313;28;20381;-65
2021/12/04 07:39:50;;;;;;;9.75;5.15;;;;;;;0.44;72.48;98040.50;5023262;28;20040;-66
2021/12/04 07:42:16;;;;;;;10.93;5.43;;;;;;;0.56;72.42;98034.59;5017723;28;20112;-65
2021/12/04 07:44:41;;;;;;;10.77;5.45;;;;;;;0.58;72.92;98021.69;5021981;28;20043;-66
2021/12/04 07:47:06;;;;;;;10.80;5.93;;;;;;;0.47;72.90;98027.47;5022326;28;20030;-66
2021/12/04 07:49:32;;;;;;;11.95;5.20;;;;;;;0.48;73.13;98015.53;5019728;28;20037;-66
2021/12/04 07:51:57;;;;;;;10.50;5.40;;;;;;;0.55;73.23;98022.72;5021409;28;20797;-67
2021/12/04 07:54:23;;;;;;;11.07;5.00;;;;;;;0.69;72.50;98026.97;5017600;28;20178;-65
2021/12/04 07:56:49;;;;;;;9.88;5.30;;;;;;;0.70;71.53;98026.06;5023302;28;20028;-66
2021/12/04 07:59:14;;;;;;;9.88;5.45;;;;;;;0.75;71.94;98020.66;5021575;28;20464;-66
2021/12/04 08:01:40;;;;;;;12.15;5.03;;;;;;;0.74;72.50;98026.69;5022964;28;20036;-65
2021/12/04 08:04:05;;;;;;;9.00;5.28;;;;;;;0.60;72.44;98017.31;5002477;28;20030;-66
2021/12/04 08:06:35;;;;;;;11.30;5.18;;;;;;;0.78;71.76;98017.88;5022653;28;20183;-65
2021/12/04 08:09:02;;;;;;;9.45;5.85;;;;;;;0.79;71.83;98024.66;5030808;28;20032;-66
2021/12/04 08:11:27;;;;;;;10.68;6.05;;;;;;;0.74;71.93;98021.56;5003947;28;20336;-65
2021/12/04 08:13:53;;;;;;;9.77;5.82;;;;;;;0.42;73.09;98029.53;5020725;28;20495;-65
2021/12/04 08:16:24;;;;;;;12.45;5.97;;;;;;;0.46;73.65;98018.19;5021124;28;20036;-66
2021/12/04 08:18:49;;;;;;;10.60;5.90;;;;;;;0.71;72.85;98007.22;5000884;28;20493;-66
2021/12/04 08:21:15;;;;;;;11.45;6.65;;;;;;;0.84;72.71;98011.56;5001339;28;20033;-66
2021/12/04 08:23:40;;;;;;;13.23;7.50;;;;;;;0.93;73.07;98005.84;5017674;28;20072;-66
2021/12/04 08:26:06;;;;;;;12.00;7.57;;;;;;;1.06;72.52;98006.69;5019064;28;20026;-66
2021/12/04 08:28:31;;;;;;;12.85;7.40;;;;;;;0.67;73.00;97929.00;5020882;28;20087;-66
2021/12/04 08:30:57;;;;;;;20.65;8.82;;;;;;;1.04;74.94;97987.22;5017276;28;20712;-66
2021/12/04 08:33:22;;;;;;;12.30;6.20;;;;;;;1.23;74.55;97989.41;5016189;28;20024;-65
2021/12/04 08:35:48;;;;;;;8.57;3.95;;;;;;;1.39;72.38;97991.75;5012169;28;20036;-65
2021/12/04 08:38:13;;;;;;;8.00;2.60;;;;;;;1.28;69.71;97926.72;5000077;28;20025;-65
2021/12/04 08:40:40;;;;;;;7.57;3.03;;;;;;;1.80;68.01;97983.03;4995908;28;20033;-66
2021/12/04 08:43:06;;;;;;;10.63;3.42;;;;;;;1.96;67.47;97995.63;4991920;28;20032;-66
2021/12/04 08:45:32;;;;;;;4.97;2.08;;;;;;;1.99;66.23;97990.28;5050484;28;20480;-65
2021/12/04 08:47:57;;;;;;;5.35;2.25;;;;;;;2.10;65.44;97985.25;5014380;28;20041;-66
2021/12/04 08:50:26;;;;;;;5.70;2.55;;;;;;;1.91;65.39;97927.53;5013486;28;20078;-65
2021/12/04 08:52:54;;;;;;;5.88;1.95;;;;;;;2.29;64.91;97990.72;5019355;28;20041;-65
2021/12/04 08:55:20;;;;;;;6.57;2.90;;;;;;;2.34;65.11;97989.56;5016714;28;20272;-66
2021/12/04 08:57:45;;;;;;;4.60;1.92;;;;;;;2.28;64.05;97967.72;5000275;28;20098;-66
2021/12/04 09:00:39;;;;;;;5.22;2.25;;;;;;;2.37;64.35;97987.59;5020093;28;20042;-66
2021/12/04 09:03:06;;;;;;;5.82;2.50;;;;;;;2.29;63.80;97979.63;4997232;28;20037;-66
2021/12/04 09:05:33;;;;;;;6.20;2.78;;;;;;;2.39;64.49;97983.19;5006061;28;20033;-65
2021/12/04 09:07:59;;;;;;;6.05;2.08;;;;;;;2.43;64.13;97983.81;5019617;28;20523;-65
2021/12/04 09:10:25;;;;;;;5.15;2.50;;;;;;;2.43;64.03;97988.94;5017395;28;20043;-65
2021/12/04 09:12:50;;;;;;;5.63;2.13;;;;;;;2.43;63.53;97984.63;5018386;28;20036;-65
2021/12/04 09:15:20;;;;;;;5.28;1.70;;;;;;;2.47;63.31;97980.91;5020364;28;20033;-65
2021/12/04 09:17:45;;;;;;;4.75;1.85;;;;;;;2.49;62.53;97965.41;5031448;28;20064;-65
2021/12/04 09:20:12;;;;;;;6.40;3.05;;;;;;;2.52;61.99;97952.34;5019593;28;20302;-65
2021/12/04 09:22:38;;;;;;;5.32;2.40;;;;;;;2.55;60.83;97962.38;5019684;28;20040;-65
2021/12/04 09:25:12;;;;;;;5.88;2.03;;;;;;;2.31;60.46;97918.78;5005651;28;20087;-65
2021/12/04 09:30:18;;;;;;;5.97;2.50;;;;;;;2.67;59.42;97948.66;5015916;28;20107;-65
2021/12/04 09:33:06;;;;;;;6.72;2.40;;;;;;;2.42;59.47;97905.97;5042107;28;20155;-65
2021/12/04 09:40:25;;;;;;;6.13;2.20;;;;;;;2.90;59.88;97941.03;5017851;28;20114;-65
2021/12/04 10:00:11;;;;;;;7.72;3.60;;;;;;;2.78;59.12;97862.34;5019149;28;20087;-65
2021/12/04 10:02:58;;;;;;;6.07;2.60;;;;;;;2.79;57.61;97875.09;5020501;28;20056;-64
2021/12/04 10:14:11;;;;;;;5.72;2.05;;;;;;;2.96;57.17;97878.16;5017729;28;20094;-66
2021/12/04 10:19:31;;;;;;;6.68;2.10;;;;;;;3.21;57.09;97875.38;5018870;28;20492;-66
2021/12/04 10:35:04;;;;;;;5.53;2.22;;;;;;;3.66;52.64;97857.31;5028593;28;20037;-66
2021/12/04 10:37:30;;;;;;;4.80;1.98;;;;;;;3.66;53.36;97847.03;5018913;28;20021;-66
2021/12/04 10:40:03;;;;;;;5.72;1.90;;;;;;;3.76;50.84;97848.88;5003833;28;20800;-65
2021/12/04 10:42:44;;;;;;;5.05;2.00;;;;;;;3.78;50.24;97847.84;5007890;28;20026;-66
2021/12/04 10:45:09;;;;;;;4.82;2.00;;;;;;;3.43;49.07;97773.47;5004234;28;20025;-66
2021/12/04 10:47:35;;;;;;;9.73;2.17;;;;;;;3.74;45.96;97820.75;5009789;28;20041;-65
2021/12/04 10:50:35;;;;;;;4.50;1.92;;;;;;;3.85;45.46;97818.13;5026238;28;20029;-66
2021/12/04 10:53:10;;;;;;;;;;;;;;;3.91;45.89;97821.16;5027896;28;20026;-66
2021/12/04 11:03:38;;;;;;;5.78;2.30;;;;;;;4.09;47.17;97790.56;5024747;28;20041;-66
2021/12/04 11:41:55;;;;;;;4.70;1.50;;;;;;;4.83;45.33;97700.31;5021394;28;20621;-65
2021/12/04 11:44:29;;;;;;;8.50;2.60;;;;;;;4.79;44.33;97686.09;5011093;28;20070;-66
2021/12/04 11:46:56;;;;;;;4.95;1.88;;;;;;;4.88;45.21;97681.91;5017956;28;20060;-66
2021/12/04 11:49:25;;;;;;;4.43;1.60;;;;;;;4.89;44.69;97674.06;5002229;28;20029;-66
2021/12/04 11:51:58;;;;;;;7.97;2.60;;;;;;;4.90;43.17;97660.22;5018779;28;20044;-65
2021/12/04 11:54:27;;;;;;;4.93;2.00;;;;;;;4.81;44.30;97646.38;5017246;28;20034;-65
2021/12/04 11:57:11;;;;;;;5.07;1.70;;;;;;;4.92;42.95;97647.22;5015299;28;20029;-65
2021/12/04 11:59:39;;;;;;;6.28;1.88;;;;;;;4.88;42.37;97638.94;5017546;28;20030;-65
2021/12/04 12:02:08;;;;;;;8.68;4.35;;;;;;;4.90;41.68;97637.03;5021944;28;20028;-65
2021/12/04 12:04:33;;;;;;;4.38;1.70;;;;;;;5.07;42.44;97639.91;4997811;28;20706;-65
2021/12/04 12:07:15;;;;;;;4.32;1.80;;;;;;;4.97;41.07;97637.31;5010180;28;20030;-66
2021/12/04 12:09:41;;;;;;;4.53;1.70;;;;;;;5.06;42.87;97630.56;5016522;28;20030;-64
2021/12/04 12:12:11;;;;;;;4.65;1.85;;;;;;;5.03;43.38;97625.66;5018332;28;21240;-65
2021/12/04 12:14:39;;;;;;;5.22;1.88;;;;;;;5.14;42.30;97618.63;5014951;28;20034;-65
2021/12/04 12:17:06;;;;;;;4.95;2.00;;;;;;;5.15;44.71;97599.63;5017743;28;20028;-65
2021/12/04 12:19:43;;;;;;;5.25;1.75;;;;;;;5.25;41.78;97602.22;5017118;28;20044;-65
2021/12/04 12:22:28;;;;;;;5.05;1.77;;;;;;;5.14;40.54;97589.47;5018705;28;20072;-65
2021/12/04 12:25:09;;;;;;;4.10;1.60;;;;;;;5.24;41.13;97603.19;5016324;28;20025;-65
2021/12/04 12:33:18;;;;;;;4.50;1.63;;;;;;;5.45;40.61;97597.06;5017119;28;20079;-66
2021/12/04 12:38:39;;;;;;;4.03;1.63;;;;;;;5.21;40.14;97515.81;5023112;28;20766;-65
2021/12/04 12:41:15;;;;;;;4.68;1.70;;;;;;;5.59;39.12;97568.28;5019072;28;20048;-65
2021/12/04 12:43:45;;;;;;;4.88;1.95;;;;;;;5.51;39.04;97562.97;5021693;28;20025;-65
2021/12/04 12:46:10;;;;;;;4.78;1.90;;;;;;;5.50;38.12;97562.16;5006461;28;20038;-65
2021/12/04 12:48:48;;;;;;;5.53;2.35;;;;;;;5.67;39.91;97568.38;5021578;28;20037;-65
2021/12/04 12:51:15;;;;;;;6.40;2.42;;;;;;;5.66;40.13;97568.50;4997048;28;20030;-65
2021/12/04 12:53:45;;;;;;;8.95;2.50;;;;;;;5.66;40.41;97561.59;5051151;28;20057;-65
2021/12/04 12:56:13;;;;;;;5.57;2.05;;;;;;;5.62;39.83;97555.09;5017206;28;20033;-65
2021/12/04 12:58:44;;;;;;;4.82;2.10;;;;;;;5.62;42.52;97539.59;5025602;28;20025;-65
2021/12/04 13:12:46;;;;;;;5.22;2.10;;;;;;;5.41;40.43;97482.28;5019064;28;20040;-65
2021/12/04 13:15:12;;;;;;;6.30;2.10;;;;;;;5.75;40.15;97516.91;5023653;28;20543;-65
2021/12/04 13:17:40;;;;;;;5.93;1.88;;;;;;;5.76;39.54;97528.03;5019104;28;20028;-66
2021/12/04 13:20:06;;;;;;;4.60;2.10;;;;;;;5.77;38.22;97516.78;5023555;28;20123;-65
2021/12/04 13:22:32;;;;;;;4.82;1.80;;;;;;;5.76;38.76;97510.00;5019994;28;20033;-65
2021/12/04 13:25:00;;;;;;;6.07;2.03;;;;;;;5.83;35.79;97503.31;5006044;28;20090;-65
2021/12/04 13:30:00;;;;;;;4.80;2.13;;;;;;;5.90;36.04;97496.63;5024990;28;20515;-66
2021/12/04 13:32:34;;;;;;;4.88;1.70;;;;;;;5.62;36.86;97448.53;5023651;28;20049;-65
2021/12/04 13:35:10;;;;;;;4.90;1.92;;;;;;;5.88;36.17;97498.53;5021666;28;20029;-65
2021/12/04 13:37:36;;;;;;;5.00;1.70;;;;;;;5.97;36.01;97499.50;5021413;28;20518;-65
2021/12/04 13:40:07;;;;;;;5.00;1.90;;;;;;;5.84;37.32;97492.06;5020102;28;20038;-67
2021/12/04 13:42:34;;;;;;;5.28;1.80;;;;;;;5.88;37.99;97495.16;5020505;28;20030;-67
2021/12/04 13:45:00;;;;;;;4.70;2.10;;;;;;;5.44;38.42;97438.97;5017259;28;20021;-66
2021/12/04 13:47:26;;;;;;;4.25;1.92;;;;;;;5.88;38.55;97495.16;5000967;28;20095;-67
2021/12/04 13:49:53;;;;;;;5.15;2.00;;;;;;;5.76;38.23;97477.25;5016981;28;20059;-67
2021/12/04 13:52:19;;;;;;;5.13;1.90;;;;;;;5.78;38.64;97490.03;5004203;28;20550;-67
2021/12/04 13:54:49;;;;;;;4.70;1.75;;;;;;;5.77;38.61;97493.56;5003555;28;20045;-67
2021/12/04 13:57:14;;;;;;;4.32;1.65;;;;;;;5.77;39.80;97496.16;4995685;28;20029;-68
2021/12/04 13:59:41;;;;;;;5.22;2.00;;;;;;;5.80;38.70;97492.47;5017573;28;20036;-67
2021/12/04 14:02:06;;;;;;;5.30;2.60;;;;;;;5.76;39.87;97485.00;5023265;28;20021;-67
2021/12/04 14:04:32;;;;;;;5.65;2.15;;;;;;;5.82;39.17;97490.53;5002816;28;20498;-67
2021/12/04 14:07:02;;;;;;;5.18;2.75;;;;;;;5.77;38.70;97476.31;5004615;28;20124;-67
2021/12/04 14:09:36;;;;;;;8.85;5.45;;;;;;;5.83;39.15;97482.66;5020678;28;20072;-67
2021/12/04 14:12:03;;;;;;;6.38;3.35;;;;;;;5.92;39.37;97478.44;5019010;28;20532;-67
2021/12/04 14:14:30;;;;;;;6.45;4.10;;;;;;;5.72;39.34;97457.06;5017923;28;20524;-67
2021/12/04 14:17:09;;;;;;;5.90;2.63;;;;;;;5.90;39.27;97472.59;5004635;28;20057;-67
2021/12/04 14:19:35;;;;;;;5.20;2.30;;;;;;;5.94;38.90;97473.94;5051451;28;20022;-68
2021/12/04 14:22:13;;;;;;;5.20;2.20;;;;;;;5.90;39.68;97470.03;5003703;28;20033;-67
2021/12/04 14:24:59;;;;;;;4.75;1.80;;;;;;;5.86;38.54;97463.50;5001092;28;20056;-66
2021/12/04 14:27:27;;;;;;;4.97;1.80;;;;;;;5.61;38.59;97427.09;5019189;28;20026;-67
2021/12/04 14:29:55;;;;;;;4.35;1.75;;;;;;;5.87;40.04;97459.97;5022616;28;20029;-67
2021/12/04 14:32:27;;;;;;;5.25;2.10;;;;;;;5.93;40.58;97455.06;5008970;28;20025;-67
2021/12/04 14:35:07;;;;;;;5.60;2.25;;;;;;;5.83;41.22;97451.72;5055284;28;20033;-67
2021/12/04 14:37:40;;;;;;;5.07;2.38;;;;;;;5.42;41.83;97385.94;5018192;28;20029;-67
2021/12/04 14:40:08;;;;;;;8.82;3.10;;;;;;;5.61;41.74;97429.69;5017439;28;20533;-67
2021/12/04 14:42:36;;;;;;;6.55;2.95;;;;;;;5.69;41.47;97424.63;5020115;28;20034;-68
2021/12/04 14:45:09;;;;;;;6.07;3.17;;;;;;;5.69;41.01;97436.69;5012355;28;20109;-67
2021/12/04 14:47:42;;;;;;;6.18;3.20;;;;;;;5.45;41.11;97394.19;5020804;28;20025;-67
2021/12/04 14:50:08;;;;;;;7.70;3.25;;;;;;;5.74;44.43;97448.22;5008479;28;20044;-67